Terminal Aerodrome Forecast
Issued by NWS

Home | Current Version | Previous Version | Text Only | Print | Product List | Glossary On
Versions: 1 2 3 4 5 6 7 8 9 10 11 12 13 14 15 16 17 18 19 20 21 22 23 24 25 26 27 28 29 30 31 32
000
FTUS42 KJAX 180500
TAFCRG
TAF
KCRG 180521Z 1806/1906 VRB03KT P6SM SCT250
     FM180900 00000KT P6SM SCT010
     FM181600 VRB03KT P6SM VCSH SCT035 SCT250
     FM181900 10008KT P6SM VCSH BKN035
     FM190200 15004KT P6SM VCSH SCT035 BKN100=

USA.gov is the U.S. government's official web portal to all federal, state and local government web resources and services.